sensor_id;sensor_type;location;lat;lon;timestamp;P1;durP1;ratioP1;P2;durP2;ratioP2
48203;SDS011;33994;50.998;5.864;2023-04-25T00:00:51;11.23;;;3.90;;
48203;SDS011;33994;50.998;5.864;2023-04-25T00:03:54;14.73;;;4.35;;
48203;SDS011;33994;50.998;5.864;2023-04-25T00:06:57;14.25;;;4.40;;
48203;SDS011;33994;50.998;5.864;2023-04-25T00:10:02;14.77;;;4.35;;
48203;SDS011;33994;50.998;5.864;2023-04-25T00:13:05;15.60;;;4.38;;
48203;SDS011;33994;50.998;5.864;2023-04-25T00:16:09;16.40;;;4.15;;
48203;SDS011;33994;50.998;5.864;2023-04-25T00:19:12;16.27;;;4.38;;
48203;SDS011;33994;50.998;5.864;2023-04-25T00:22:15;20.35;;;5.45;;
48203;SDS011;33994;50.998;5.864;2023-04-25T00:25:19;16.60;;;5.40;;
48203;SDS011;33994;50.998;5.864;2023-04-25T00:28:22;16.20;;;4.85;;
48203;SDS011;33994;50.998;5.864;2023-04-25T00:31:26;13.50;;;4.75;;
48203;SDS011;33994;50.998;5.864;2023-04-25T00:34:29;24.08;;;5.20;;
48203;SDS011;33994;50.998;5.864;2023-04-25T00:37:33;17.02;;;5.55;;
48203;SDS011;33994;50.998;5.864;2023-04-25T00:40:36;16.52;;;4.80;;
48203;SDS011;33994;50.998;5.864;2023-04-25T00:43:39;22.70;;;5.35;;
48203;SDS011;33994;50.998;5.864;2023-04-25T00:46:44;20.08;;;6.15;;
48203;SDS011;33994;50.998;5.864;2023-04-25T00:49:46;16.98;;;4.57;;
48203;SDS011;33994;50.998;5.864;2023-04-25T00:52:50;15.50;;;4.43;;
48203;SDS011;33994;50.998;5.864;2023-04-25T00:55:53;18.80;;;4.70;;
48203;SDS011;33994;50.998;5.864;2023-04-25T00:58:57;15.88;;;4.35;;
48203;SDS011;33994;50.998;5.864;2023-04-25T01:02:01;17.50;;;4.15;;
48203;SDS011;33994;50.998;5.864;2023-04-25T01:05:05;15.40;;;4.03;;
48203;SDS011;33994;50.998;5.864;2023-04-25T01:08:08;15.55;;;4.68;;
48203;SDS011;33994;50.998;5.864;2023-04-25T01:11:11;24.42;;;4.90;;
48203;SDS011;33994;50.998;5.864;2023-04-25T01:14:15;15.82;;;5.32;;
48203;SDS011;33994;50.998;5.864;2023-04-25T01:17:19;20.45;;;5.07;;
48203;SDS011;33994;50.998;5.864;2023-04-25T01:20:22;14.93;;;4.30;;
48203;SDS011;33994;50.998;5.864;2023-04-25T01:23:27;19.05;;;4.38;;
48203;SDS011;33994;50.998;5.864;2023-04-25T01:26:30;17.80;;;4.75;;
48203;SDS011;33994;50.998;5.864;2023-04-25T01:29:35;17.23;;;5.00;;
48203;SDS011;33994;50.998;5.864;2023-04-25T01:32:38;11.43;;;4.45;;
48203;SDS011;33994;50.998;5.864;2023-04-25T01:35:43;18.63;;;4.95;;
48203;SDS011;33994;50.998;5.864;2023-04-25T01:38:47;10.70;;;4.38;;
48203;SDS011;33994;50.998;5.864;2023-04-25T01:41:50;16.60;;;4.80;;
48203;SDS011;33994;50.998;5.864;2023-04-25T01:44:53;14.60;;;4.18;;
48203;SDS011;33994;50.998;5.864;2023-04-25T01:47:57;20.02;;;5.88;;
48203;SDS011;33994;50.998;5.864;2023-04-25T01:51:00;19.02;;;5.10;;
48203;SDS011;33994;50.998;5.864;2023-04-25T01:54:04;27.60;;;5.68;;
48203;SDS011;33994;50.998;5.864;2023-04-25T01:57:08;16.73;;;5.25;;
48203;SDS011;33994;50.998;5.864;2023-04-25T02:00:12;10.32;;;4.13;;
48203;SDS011;33994;50.998;5.864;2023-04-25T02:03:15;12.02;;;4.18;;
48203;SDS011;33994;50.998;5.864;2023-04-25T02:06:19;17.08;;;4.90;;
48203;SDS011;33994;50.998;5.864;2023-04-25T02:09:23;16.10;;;5.22;;
48203;SDS011;33994;50.998;5.864;2023-04-25T02:12:27;14.85;;;5.18;;
48203;SDS011;33994;50.998;5.864;2023-04-25T02:15:31;19.63;;;5.35;;
48203;SDS011;33994;50.998;5.864;2023-04-25T02:18:34;13.55;;;4.40;;
48203;SDS011;33994;50.998;5.864;2023-04-25T02:21:37;18.42;;;4.57;;
48203;SDS011;33994;50.998;5.864;2023-04-25T02:24:41;17.40;;;4.25;;
48203;SDS011;33994;50.998;5.864;2023-04-25T02:27:45;12.40;;;4.30;;
48203;SDS011;33994;50.998;5.864;2023-04-25T02:30:48;28.75;;;4.95;;
48203;SDS011;33994;50.998;5.864;2023-04-25T02:33:51;16.63;;;5.22;;
48203;SDS011;33994;50.998;5.864;2023-04-25T02:36:54;26.52;;;5.90;;
48203;SDS011;33994;50.998;5.864;2023-04-25T02:39:59;16.23;;;4.43;;
48203;SDS011;33994;50.998;5.864;2023-04-25T02:43:02;22.95;;;4.18;;
48203;SDS011;33994;50.998;5.864;2023-04-25T02:46:05;13.23;;;5.07;;
48203;SDS011;33994;50.998;5.864;2023-04-25T02:49:08;14.38;;;4.32;;
48203;SDS011;33994;50.998;5.864;2023-04-25T02:52:11;15.70;;;4.82;;
48203;SDS011;33994;50.998;5.864;2023-04-25T02:55:16;16.92;;;5.28;;
48203;SDS011;33994;50.998;5.864;2023-04-25T02:58:19;20.98;;;5.78;;
48203;SDS011;33994;50.998;5.864;2023-04-25T03:01:23;19.00;;;4.95;;
48203;SDS011;33994;50.998;5.864;2023-04-25T03:04:26;14.10;;;5.30;;
48203;SDS011;33994;50.998;5.864;2023-04-25T03:07:29;16.40;;;4.90;;
48203;SDS011;33994;50.998;5.864;2023-04-25T03:10:33;20.30;;;5.45;;
48203;SDS011;33994;50.998;5.864;2023-04-25T03:13:37;17.92;;;4.90;;
48203;SDS011;33994;50.998;5.864;2023-04-25T03:16:40;20.35;;;5.53;;
48203;SDS011;33994;50.998;5.864;2023-04-25T03:19:43;24.50;;;5.55;;
48203;SDS011;33994;50.998;5.864;2023-04-25T03:22:46;18.10;;;4.65;;
48203;SDS011;33994;50.998;5.864;2023-04-25T03:25:51;17.38;;;5.10;;
48203;SDS011;33994;50.998;5.864;2023-04-25T03:28:54;16.08;;;4.90;;
48203;SDS011;33994;50.998;5.864;2023-04-25T03:31:57;21.05;;;5.13;;
48203;SDS011;33994;50.998;5.864;2023-04-25T03:35:00;21.90;;;4.93;;
48203;SDS011;33994;50.998;5.864;2023-04-25T03:38:04;14.25;;;5.15;;
48203;SDS011;33994;50.998;5.864;2023-04-25T03:41:08;22.63;;;4.53;;
48203;SDS011;33994;50.998;5.864;2023-04-25T03:44:11;17.58;;;5.45;;
48203;SDS011;33994;50.998;5.864;2023-04-25T03:47:14;20.33;;;4.63;;
48203;SDS011;33994;50.998;5.864;2023-04-25T03:50:18;19.55;;;6.07;;
48203;SDS011;33994;50.998;5.864;2023-04-25T03:53:21;21.30;;;5.47;;
48203;SDS011;33994;50.998;5.864;2023-04-25T03:56:26;17.80;;;4.90;;
48203;SDS011;33994;50.998;5.864;2023-04-25T03:59:29;17.05;;;4.60;;
48203;SDS011;33994;50.998;5.864;2023-04-25T04:02:32;17.90;;;5.13;;
48203;SDS011;33994;50.998;5.864;2023-04-25T04:05:35;16.38;;;5.20;;
48203;SDS011;33994;50.998;5.864;2023-04-25T04:08:38;15.77;;;5.13;;
48203;SDS011;33994;50.998;5.864;2023-04-25T04:11:43;15.23;;;5.00;;
48203;SDS011;33994;50.998;5.864;2023-04-25T04:14:46;22.00;;;5.15;;
48203;SDS011;33994;50.998;5.864;2023-04-25T04:17:49;22.25;;;6.53;;
48203;SDS011;33994;50.998;5.864;2023-04-25T04:20:52;13.65;;;5.35;;
48203;SDS011;33994;50.998;5.864;2023-04-25T04:23:55;18.63;;;5.10;;
48203;SDS011;33994;50.998;5.864;2023-04-25T04:27:00;18.50;;;5.18;;
48203;SDS011;33994;50.998;5.864;2023-04-25T04:30:03;19.58;;;5.78;;
48203;SDS011;33994;50.998;5.864;2023-04-25T04:33:07;19.75;;;6.18;;
48203;SDS011;33994;50.998;5.864;2023-04-25T04:36:10;18.02;;;5.50;;
48203;SDS011;33994;50.998;5.864;2023-04-25T04:39:14;15.43;;;4.63;;
48203;SDS011;33994;50.998;5.864;2023-04-25T04:42:18;20.40;;;5.13;;
48203;SDS011;33994;50.998;5.864;2023-04-25T04:45:21;28.67;;;5.28;;
48203;SDS011;33994;50.998;5.864;2023-04-25T04:48:24;18.60;;;5.15;;
48203;SDS011;33994;50.998;5.864;2023-04-25T04:51:28;19.60;;;5.75;;
48203;SDS011;33994;50.998;5.864;2023-04-25T04:54:31;18.67;;;5.38;;
48203;SDS011;33994;50.998;5.864;2023-04-25T04:57:35;17.25;;;4.88;;
48203;SDS011;33994;50.998;5.864;2023-04-25T05:00:38;22.90;;;6.05;;
48203;SDS011;33994;50.998;5.864;2023-04-25T05:03:41;22.15;;;5.38;;
48203;SDS011;33994;50.998;5.864;2023-04-25T05:06:45;17.52;;;5.28;;
48203;SDS011;33994;50.998;5.864;2023-04-25T05:09:48;21.83;;;4.93;;
48203;SDS011;33994;50.998;5.864;2023-04-25T05:12:53;14.13;;;4.93;;
48203;SDS011;33994;50.998;5.864;2023-04-25T05:15:56;22.17;;;5.55;;
48203;SDS011;33994;50.998;5.864;2023-04-25T05:18:59;14.57;;;4.80;;
48203;SDS011;33994;50.998;5.864;2023-04-25T05:22:02;19.83;;;4.35;;
48203;SDS011;33994;50.998;5.864;2023-04-25T05:25:06;18.08;;;5.15;;
48203;SDS011;33994;50.998;5.864;2023-04-25T05:28:11;22.48;;;5.45;;
48203;SDS011;33994;50.998;5.864;2023-04-25T05:31:15;21.48;;;5.53;;
48203;SDS011;33994;50.998;5.864;2023-04-25T05:34:18;27.02;;;5.50;;
48203;SDS011;33994;50.998;5.864;2023-04-25T05:37:21;18.98;;;4.97;;
48203;SDS011;33994;50.998;5.864;2023-04-25T05:40:25;21.08;;;4.78;;
48203;SDS011;33994;50.998;5.864;2023-04-25T05:43:29;19.48;;;4.80;;
48203;SDS011;33994;50.998;5.864;2023-04-25T05:46:32;24.58;;;5.32;;
48203;SDS011;33994;50.998;5.864;2023-04-25T05:49:35;21.27;;;6.47;;
48203;SDS011;33994;50.998;5.864;2023-04-25T05:52:39;25.95;;;7.75;;
48203;SDS011;33994;50.998;5.864;2023-04-25T05:55:42;25.55;;;5.97;;
48203;SDS011;33994;50.998;5.864;2023-04-25T05:58:46;14.73;;;4.68;;
48203;SDS011;33994;50.998;5.864;2023-04-25T06:01:50;16.17;;;4.78;;
48203;SDS011;33994;50.998;5.864;2023-04-25T06:04:53;18.05;;;4.93;;
48203;SDS011;33994;50.998;5.864;2023-04-25T06:07:56;15.00;;;4.97;;
48203;SDS011;33994;50.998;5.864;2023-04-25T06:10:59;26.85;;;4.22;;
48203;SDS011;33994;50.998;5.864;2023-04-25T06:14:03;12.45;;;4.47;;
48203;SDS011;33994;50.998;5.864;2023-04-25T06:17:07;30.70;;;6.30;;
48203;SDS011;33994;50.998;5.864;2023-04-25T06:20:10;15.63;;;4.47;;
48203;SDS011;33994;50.998;5.864;2023-04-25T06:23:14;21.35;;;5.57;;
48203;SDS011;33994;50.998;5.864;2023-04-25T06:26:17;20.55;;;4.00;;
48203;SDS011;33994;50.998;5.864;2023-04-25T06:29:21;21.73;;;4.15;;
48203;SDS011;33994;50.998;5.864;2023-04-25T06:32:24;15.60;;;4.47;;
48203;SDS011;33994;50.998;5.864;2023-04-25T06:35:27;14.48;;;4.68;;
48203;SDS011;33994;50.998;5.864;2023-04-25T06:38:31;24.58;;;4.90;;
48203;SDS011;33994;50.998;5.864;2023-04-25T06:41:34;22.98;;;5.63;;
48203;SDS011;33994;50.998;5.864;2023-04-25T06:44:38;20.13;;;3.67;;
48203;SDS011;33994;50.998;5.864;2023-04-25T06:47:41;20.10;;;4.75;;
48203;SDS011;33994;50.998;5.864;2023-04-25T06:50:45;14.23;;;4.43;;
48203;SDS011;33994;50.998;5.864;2023-04-25T06:53:48;16.00;;;3.90;;
48203;SDS011;33994;50.998;5.864;2023-04-25T06:56:51;15.73;;;3.70;;
48203;SDS011;33994;50.998;5.864;2023-04-25T06:59:55;21.50;;;4.20;;
48203;SDS011;33994;50.998;5.864;2023-04-25T07:02:59;19.45;;;4.35;;
48203;SDS011;33994;50.998;5.864;2023-04-25T07:06:01;17.45;;;3.78;;
48203;SDS011;33994;50.998;5.864;2023-04-25T07:09:04;13.73;;;4.10;;
48203;SDS011;33994;50.998;5.864;2023-04-25T07:12:08;17.02;;;4.03;;
48203;SDS011;33994;50.998;5.864;2023-04-25T07:15:12;13.18;;;4.55;;
48203;SDS011;33994;50.998;5.864;2023-04-25T07:18:15;21.27;;;4.57;;
48203;SDS011;33994;50.998;5.864;2023-04-25T07:21:19;19.10;;;4.88;;
48203;SDS011;33994;50.998;5.864;2023-04-25T07:24:22;14.80;;;3.17;;
48203;SDS011;33994;50.998;5.864;2023-04-25T07:27:25;11.25;;;3.00;;
48203;SDS011;33994;50.998;5.864;2023-04-25T07:30:29;18.25;;;3.75;;
48203;SDS011;33994;50.998;5.864;2023-04-25T07:33:33;15.75;;;3.50;;
48203;SDS011;33994;50.998;5.864;2023-04-25T07:36:36;14.00;;;3.30;;
48203;SDS011;33994;50.998;5.864;2023-04-25T07:39:39;12.43;;;3.17;;
48203;SDS011;33994;50.998;5.864;2023-04-25T07:42:42;15.20;;;3.30;;
48203;SDS011;33994;50.998;5.864;2023-04-25T07:45:47;19.17;;;3.70;;
48203;SDS011;33994;50.998;5.864;2023-04-25T07:48:51;12.30;;;2.85;;
48203;SDS011;33994;50.998;5.864;2023-04-25T07:51:54;17.10;;;2.90;;
48203;SDS011;33994;50.998;5.864;2023-04-25T07:54:57;13.07;;;2.65;;
48203;SDS011;33994;50.998;5.864;2023-04-25T07:58:00;16.13;;;2.78;;
48203;SDS011;33994;50.998;5.864;2023-04-25T08:01:04;16.05;;;3.50;;
48203;SDS011;33994;50.998;5.864;2023-04-25T08:04:08;13.18;;;3.00;;
48203;SDS011;33994;50.998;5.864;2023-04-25T08:07:11;15.48;;;2.83;;
48203;SDS011;33994;50.998;5.864;2023-04-25T08:10:14;10.80;;;2.45;;
48203;SDS011;33994;50.998;5.864;2023-04-25T08:13:17;19.50;;;3.83;;
48203;SDS011;33994;50.998;5.864;2023-04-25T08:16:22;11.85;;;2.75;;
48203;SDS011;33994;50.998;5.864;2023-04-25T08:19:25;13.88;;;3.20;;
48203;SDS011;33994;50.998;5.864;2023-04-25T08:22:29;13.02;;;3.17;;
48203;SDS011;33994;50.998;5.864;2023-04-25T08:25:33;18.25;;;3.67;;
48203;SDS011;33994;50.998;5.864;2023-04-25T08:28:36;13.18;;;3.65;;
48203;SDS011;33994;50.998;5.864;2023-04-25T08:31:41;14.00;;;3.35;;
48203;SDS011;33994;50.998;5.864;2023-04-25T08:34:45;17.70;;;3.22;;
48203;SDS011;33994;50.998;5.864;2023-04-25T08:37:48;17.40;;;2.95;;
48203;SDS011;33994;50.998;5.864;2023-04-25T08:40:52;9.43;;;2.83;;
48203;SDS011;33994;50.998;5.864;2023-04-25T08:43:56;15.77;;;3.08;;
48203;SDS011;33994;50.998;5.864;2023-04-25T08:47:03;14.32;;;3.17;;
48203;SDS011;33994;50.998;5.864;2023-04-25T08:50:07;14.95;;;2.72;;
48203;SDS011;33994;50.998;5.864;2023-04-25T08:53:11;10.65;;;2.65;;
48203;SDS011;33994;50.998;5.864;2023-04-25T08:56:16;11.52;;;2.83;;
48203;SDS011;33994;50.998;5.864;2023-04-25T08:59:20;9.15;;;2.80;;
48203;SDS011;33994;50.998;5.864;2023-04-25T09:02:25;12.40;;;2.90;;
48203;SDS011;33994;50.998;5.864;2023-04-25T09:05:29;11.93;;;2.72;;
48203;SDS011;33994;50.998;5.864;2023-04-25T09:08:32;12.30;;;3.85;;
48203;SDS011;33994;50.998;5.864;2023-04-25T09:11:35;7.47;;;3.10;;
48203;SDS011;33994;50.998;5.864;2023-04-25T09:14:39;11.07;;;3.08;;
48203;SDS011;33994;50.998;5.864;2023-04-25T09:17:44;22.20;;;3.75;;
48203;SDS011;33994;50.998;5.864;2023-04-25T09:20:47;12.00;;;2.85;;
48203;SDS011;33994;50.998;5.864;2023-04-25T09:23:50;7.90;;;2.63;;
48203;SDS011;33994;50.998;5.864;2023-04-25T09:26:53;8.60;;;2.55;;
48203;SDS011;33994;50.998;5.864;2023-04-25T09:29:57;11.63;;;2.88;;
48203;SDS011;33994;50.998;5.864;2023-04-25T09:33:06;11.93;;;3.00;;
48203;SDS011;33994;50.998;5.864;2023-04-25T09:36:10;15.35;;;3.88;;
48203;SDS011;33994;50.998;5.864;2023-04-25T09:39:13;11.65;;;3.10;;
48203;SDS011;33994;50.998;5.864;2023-04-25T09:42:16;9.32;;;3.20;;
48203;SDS011;33994;50.998;5.864;2023-04-25T09:45:20;16.83;;;3.15;;
48203;SDS011;33994;50.998;5.864;2023-04-25T09:48:25;23.08;;;3.50;;
48203;SDS011;33994;50.998;5.864;2023-04-25T09:51:29;14.02;;;2.97;;
48203;SDS011;33994;50.998;5.864;2023-04-25T09:54:33;13.63;;;2.90;;
48203;SDS011;33994;50.998;5.864;2023-04-25T09:57:36;10.63;;;2.70;;
48203;SDS011;33994;50.998;5.864;2023-04-25T10:00:39;12.65;;;3.13;;
48203;SDS011;33994;50.998;5.864;2023-04-25T10:03:45;8.23;;;2.53;;
48203;SDS011;33994;50.998;5.864;2023-04-25T10:10:00;7.57;;;2.10;;
48203;SDS011;33994;50.998;5.864;2023-04-25T10:13:04;9.88;;;1.98;;
48203;SDS011;33994;50.998;5.864;2023-04-25T10:16:08;11.95;;;2.25;;
48203;SDS011;33994;50.998;5.864;2023-04-25T10:19:12;9.50;;;2.15;;
48203;SDS011;33994;50.998;5.864;2023-04-25T10:22:17;5.28;;;1.58;;
48203;SDS011;33994;50.998;5.864;2023-04-25T10:25:26;10.45;;;2.05;;
48203;SDS011;33994;50.998;5.864;2023-04-25T10:28:29;8.02;;;2.25;;
48203;SDS011;33994;50.998;5.864;2023-04-25T10:31:48;5.55;;;1.92;;
48203;SDS011;33994;50.998;5.864;2023-04-25T10:34:51;11.50;;;2.00;;
48203;SDS011;33994;50.998;5.864;2023-04-25T10:37:58;9.85;;;2.60;;
48203;SDS011;33994;50.998;5.864;2023-04-25T10:41:03;10.38;;;2.08;;
48203;SDS011;33994;50.998;5.864;2023-04-25T10:44:08;6.55;;;1.90;;
48203;SDS011;33994;50.998;5.864;2023-04-25T10:47:12;8.68;;;1.77;;
48203;SDS011;33994;50.998;5.864;2023-04-25T10:50:15;12.02;;;2.58;;
48203;SDS011;33994;50.998;5.864;2023-04-25T10:53:18;7.57;;;1.35;;
48203;SDS011;33994;50.998;5.864;2023-04-25T10:56:22;7.53;;;1.67;;
48203;SDS011;33994;50.998;5.864;2023-04-25T10:59:27;7.20;;;1.47;;
48203;SDS011;33994;50.998;5.864;2023-04-25T11:02:31;7.68;;;1.65;;
48203;SDS011;33994;50.998;5.864;2023-04-25T11:05:39;8.80;;;1.70;;
48203;SDS011;33994;50.998;5.864;2023-04-25T11:08:47;6.20;;;1.50;;
48203;SDS011;33994;50.998;5.864;2023-04-25T11:11:53;5.68;;;1.42;;
48203;SDS011;33994;50.998;5.864;2023-04-25T11:14:59;9.02;;;3.70;;
48203;SDS011;33994;50.998;5.864;2023-04-25T11:18:04;7.38;;;2.20;;
48203;SDS011;33994;50.998;5.864;2023-04-25T11:21:07;5.20;;;1.60;;
48203;SDS011;33994;50.998;5.864;2023-04-25T11:24:10;8.60;;;1.70;;
48203;SDS011;33994;50.998;5.864;2023-04-25T11:27:14;5.95;;;1.60;;
48203;SDS011;33994;50.998;5.864;2023-04-25T11:30:17;5.82;;;1.70;;
48203;SDS011;33994;50.998;5.864;2023-04-25T11:33:24;7.35;;;1.98;;
48203;SDS011;33994;50.998;5.864;2023-04-25T11:36:28;6.43;;;2.15;;
48203;SDS011;33994;50.998;5.864;2023-04-25T11:39:31;6.30;;;1.83;;
48203;SDS011;33994;50.998;5.864;2023-04-25T11:42:35;11.63;;;3.08;;
48203;SDS011;33994;50.998;5.864;2023-04-25T11:45:39;6.47;;;1.92;;
48203;SDS011;33994;50.998;5.864;2023-04-25T11:48:44;6.45;;;2.05;;
48203;SDS011;33994;50.998;5.864;2023-04-25T11:51:47;5.28;;;1.52;;
48203;SDS011;33994;50.998;5.864;2023-04-25T11:54:51;8.18;;;1.88;;
48203;SDS011;33994;50.998;5.864;2023-04-25T11:57:54;4.95;;;1.45;;
48203;SDS011;33994;50.998;5.864;2023-04-25T12:00:57;7.45;;;1.80;;
48203;SDS011;33994;50.998;5.864;2023-04-25T12:04:10;4.53;;;1.52;;
48203;SDS011;33994;50.998;5.864;2023-04-25T12:07:15;10.02;;;2.53;;
48203;SDS011;33994;50.998;5.864;2023-04-25T12:10:18;8.45;;;1.63;;
48203;SDS011;33994;50.998;5.864;2023-04-25T12:13:22;9.40;;;1.98;;
48203;SDS011;33994;50.998;5.864;2023-04-25T12:16:26;5.65;;;2.00;;
48203;SDS011;33994;50.998;5.864;2023-04-25T12:19:33;8.98;;;2.00;;
48203;SDS011;33994;50.998;5.864;2023-04-25T12:22:37;4.60;;;1.70;;
48203;SDS011;33994;50.998;5.864;2023-04-25T12:25:40;8.10;;;1.80;;
48203;SDS011;33994;50.998;5.864;2023-04-25T12:28:45;9.30;;;1.70;;
48203;SDS011;33994;50.998;5.864;2023-04-25T12:31:48;7.30;;;1.92;;
48203;SDS011;33994;50.998;5.864;2023-04-25T12:34:53;6.07;;;1.63;;
48203;SDS011;33994;50.998;5.864;2023-04-25T12:37:56;7.32;;;1.73;;
48203;SDS011;33994;50.998;5.864;2023-04-25T12:41:00;3.97;;;1.50;;
48203;SDS011;33994;50.998;5.864;2023-04-25T12:44:03;7.38;;;1.70;;
48203;SDS011;33994;50.998;5.864;2023-04-25T12:47:06;7.75;;;1.90;;
48203;SDS011;33994;50.998;5.864;2023-04-25T12:50:11;4.57;;;1.63;;
48203;SDS011;33994;50.998;5.864;2023-04-25T12:53:13;7.97;;;1.70;;
48203;SDS011;33994;50.998;5.864;2023-04-25T12:56:16;10.00;;;2.10;;
48203;SDS011;33994;50.998;5.864;2023-04-25T12:59:20;4.20;;;1.55;;
48203;SDS011;33994;50.998;5.864;2023-04-25T13:02:23;5.00;;;1.50;;
48203;SDS011;33994;50.998;5.864;2023-04-25T13:05:28;6.68;;;1.85;;
48203;SDS011;33994;50.998;5.864;2023-04-25T13:08:31;7.25;;;1.73;;
48203;SDS011;33994;50.998;5.864;2023-04-25T13:11:34;5.45;;;1.90;;
48203;SDS011;33994;50.998;5.864;2023-04-25T13:14:37;8.23;;;1.88;;
48203;SDS011;33994;50.998;5.864;2023-04-25T13:17:40;9.60;;;1.80;;
48203;SDS011;33994;50.998;5.864;2023-04-25T13:20:45;8.30;;;2.00;;
48203;SDS011;33994;50.998;5.864;2023-04-25T13:23:48;4.38;;;1.70;;
48203;SDS011;33994;50.998;5.864;2023-04-25T13:26:51;5.57;;;1.65;;
48203;SDS011;33994;50.998;5.864;2023-04-25T13:29:54;12.10;;;1.70;;
48203;SDS011;33994;50.998;5.864;2023-04-25T13:32:57;7.97;;;1.73;;
48203;SDS011;33994;50.998;5.864;2023-04-25T13:36:02;7.97;;;1.80;;
48203;SDS011;33994;50.998;5.864;2023-04-25T13:39:06;6.03;;;1.60;;
48203;SDS011;33994;50.998;5.864;2023-04-25T13:42:09;3.45;;;1.23;;
48203;SDS011;33994;50.998;5.864;2023-04-25T13:45:12;8.80;;;1.65;;
48203;SDS011;33994;50.998;5.864;2023-04-25T13:48:16;5.80;;;1.58;;
48203;SDS011;33994;50.998;5.864;2023-04-25T13:51:20;11.95;;;2.58;;
48203;SDS011;33994;50.998;5.864;2023-04-25T13:54:23;9.75;;;1.63;;
48203;SDS011;33994;50.998;5.864;2023-04-25T13:57:27;6.97;;;1.77;;
48203;SDS011;33994;50.998;5.864;2023-04-25T14:00:30;7.28;;;1.80;;
48203;SDS011;33994;50.998;5.864;2023-04-25T14:03:33;11.55;;;1.67;;
48203;SDS011;33994;50.998;5.864;2023-04-25T14:06:38;15.30;;;2.35;;
48203;SDS011;33994;50.998;5.864;2023-04-25T14:09:41;5.50;;;1.65;;
48203;SDS011;33994;50.998;5.864;2023-04-25T14:12:44;10.88;;;2.25;;
48203;SDS011;33994;50.998;5.864;2023-04-25T14:15:47;6.68;;;1.60;;
48203;SDS011;33994;50.998;5.864;2023-04-25T14:18:50;5.80;;;1.80;;
48203;SDS011;33994;50.998;5.864;2023-04-25T14:21:55;6.45;;;1.23;;
48203;SDS011;33994;50.998;5.864;2023-04-25T14:24:58;7.13;;;1.50;;
48203;SDS011;33994;50.998;5.864;2023-04-25T14:28:01;5.88;;;1.40;;
48203;SDS011;33994;50.998;5.864;2023-04-25T14:31:04;4.03;;;0.95;;
48203;SDS011;33994;50.998;5.864;2023-04-25T14:34:07;3.25;;;1.20;;
48203;SDS011;33994;50.998;5.864;2023-04-25T14:37:12;8.95;;;1.40;;
48203;SDS011;33994;50.998;5.864;2023-04-25T14:40:15;7.20;;;2.03;;
48203;SDS011;33994;50.998;5.864;2023-04-25T14:43:18;5.88;;;1.42;;
48203;SDS011;33994;50.998;5.864;2023-04-25T16:51:01;4.38;;;1.55;;
48203;SDS011;33994;50.998;5.864;2023-04-25T16:54:04;5.20;;;1.98;;
48203;SDS011;33994;50.998;5.864;2023-04-25T16:57:07;3.92;;;1.30;;
48203;SDS011;33994;50.998;5.864;2023-04-25T17:00:11;7.35;;;1.27;;
48203;SDS011;33994;50.998;5.864;2023-04-25T17:03:15;5.85;;;1.33;;
48203;SDS011;33994;50.998;5.864;2023-04-25T17:06:20;6.97;;;1.20;;
48203;SDS011;33994;50.998;5.864;2023-04-25T17:09:22;4.72;;;1.38;;
48203;SDS011;33994;50.998;5.864;2023-04-25T17:12:26;5.90;;;1.00;;
48203;SDS011;33994;50.998;5.864;2023-04-25T17:15:29;4.97;;;1.00;;
48203;SDS011;33994;50.998;5.864;2023-04-25T17:18:32;4.00;;;1.10;;
48203;SDS011;33994;50.998;5.864;2023-04-25T17:21:36;6.35;;;1.40;;
48203;SDS011;33994;50.998;5.864;2023-04-25T17:24:40;9.05;;;2.15;;
48203;SDS011;33994;50.998;5.864;2023-04-25T17:27:44;4.55;;;1.73;;
48203;SDS011;33994;50.998;5.864;2023-04-25T17:30:47;6.28;;;1.35;;
48203;SDS011;33994;50.998;5.864;2023-04-25T17:33:50;4.22;;;1.17;;
48203;SDS011;33994;50.998;5.864;2023-04-25T17:36:54;9.20;;;1.50;;
48203;SDS011;33994;50.998;5.864;2023-04-25T17:39:58;7.97;;;1.60;;
48203;SDS011;33994;50.998;5.864;2023-04-25T17:43:01;7.43;;;1.95;;
48203;SDS011;33994;50.998;5.864;2023-04-25T17:46:04;7.20;;;1.88;;
48203;SDS011;33994;50.998;5.864;2023-04-25T17:49:07;9.93;;;2.80;;
48203;SDS011;33994;50.998;5.864;2023-04-25T17:52:12;5.60;;;1.50;;
48203;SDS011;33994;50.998;5.864;2023-04-25T17:55:15;6.88;;;1.20;;
48203;SDS011;33994;50.998;5.864;2023-04-25T17:58:18;5.43;;;1.13;;
48203;SDS011;33994;50.998;5.864;2023-04-25T18:01:21;7.68;;;1.70;;
48203;SDS011;33994;50.998;5.864;2023-04-25T18:04:25;8.75;;;1.45;;
48203;SDS011;33994;50.998;5.864;2023-04-25T18:07:29;4.15;;;1.17;;
48203;SDS011;33994;50.998;5.864;2023-04-25T18:10:32;5.05;;;1.20;;
48203;SDS011;33994;50.998;5.864;2023-04-25T18:13:35;5.25;;;1.30;;
48203;SDS011;33994;50.998;5.864;2023-04-25T18:16:39;9.43;;;1.63;;
48203;SDS011;33994;50.998;5.864;2023-04-25T18:19:42;7.80;;;2.97;;
48203;SDS011;33994;50.998;5.864;2023-04-25T18:22:46;4.70;;;2.17;;
48203;SDS011;33994;50.998;5.864;2023-04-25T18:25:49;3.38;;;1.38;;
48203;SDS011;33994;50.998;5.864;2023-04-25T18:28:52;6.30;;;1.27;;
48203;SDS011;33994;50.998;5.864;2023-04-25T18:31:55;9.20;;;1.50;;
48203;SDS011;33994;50.998;5.864;2023-04-25T18:34:58;3.92;;;1.20;;
48203;SDS011;33994;50.998;5.864;2023-04-25T18:38:03;10.00;;;2.00;;
48203;SDS011;33994;50.998;5.864;2023-04-25T18:41:06;5.47;;;1.95;;
48203;SDS011;33994;50.998;5.864;2023-04-25T18:44:10;10.05;;;1.70;;
48203;SDS011;33994;50.998;5.864;2023-04-25T18:47:13;6.65;;;2.75;;
48203;SDS011;33994;50.998;5.864;2023-04-25T18:50:17;5.43;;;2.05;;
48203;SDS011;33994;50.998;5.864;2023-04-25T18:53:21;5.82;;;1.55;;
48203;SDS011;33994;50.998;5.864;2023-04-25T18:56:24;10.95;;;1.80;;
48203;SDS011;33994;50.998;5.864;2023-04-25T18:59:29;3.92;;;1.33;;
48203;SDS011;33994;50.998;5.864;2023-04-25T19:02:31;4.47;;;1.27;;
48203;SDS011;33994;50.998;5.864;2023-04-25T19:05:36;11.00;;;2.47;;
48203;SDS011;33994;50.998;5.864;2023-04-25T19:08:41;6.85;;;1.58;;
48203;SDS011;33994;50.998;5.864;2023-04-25T19:11:44;9.35;;;1.80;;
48203;SDS011;33994;50.998;5.864;2023-04-25T19:14:47;4.88;;;1.30;;
48203;SDS011;33994;50.998;5.864;2023-04-25T19:17:50;3.55;;;1.38;;
48203;SDS011;33994;50.998;5.864;2023-04-25T19:20:53;6.47;;;1.75;;
48203;SDS011;33994;50.998;5.864;2023-04-25T19:23:58;6.95;;;1.50;;
48203;SDS011;33994;50.998;5.864;2023-04-25T19:27:01;12.23;;;1.80;;
48203;SDS011;33994;50.998;5.864;2023-04-25T19:30:05;7.70;;;1.80;;
48203;SDS011;33994;50.998;5.864;2023-04-25T19:33:08;8.63;;;1.83;;
48203;SDS011;33994;50.998;5.864;2023-04-25T19:36:11;11.48;;;1.83;;
48203;SDS011;33994;50.998;5.864;2023-04-25T19:39:16;7.68;;;1.70;;
48203;SDS011;33994;50.998;5.864;2023-04-25T19:42:19;5.20;;;1.77;;
48203;SDS011;33994;50.998;5.864;2023-04-25T19:45:22;7.10;;;2.08;;
48203;SDS011;33994;50.998;5.864;2023-04-25T19:48:26;6.97;;;2.00;;
48203;SDS011;33994;50.998;5.864;2023-04-25T19:51:29;6.55;;;2.00;;
48203;SDS011;33994;50.998;5.864;2023-04-25T19:54:34;4.68;;;1.60;;
48203;SDS011;33994;50.998;5.864;2023-04-25T19:57:37;6.53;;;1.83;;
48203;SDS011;33994;50.998;5.864;2023-04-25T20:00:40;4.55;;;1.77;;
48203;SDS011;33994;50.998;5.864;2023-04-25T20:03:43;3.83;;;1.98;;
48203;SDS011;33994;50.998;5.864;2023-04-25T20:06:47;8.75;;;1.70;;
48203;SDS011;33994;50.998;5.864;2023-04-25T20:09:51;5.88;;;1.85;;
48203;SDS011;33994;50.998;5.864;2023-04-25T20:12:54;5.55;;;1.85;;
48203;SDS011;33994;50.998;5.864;2023-04-25T20:15:58;5.20;;;1.63;;
48203;SDS011;33994;50.998;5.864;2023-04-25T20:19:01;4.65;;;1.80;;
48203;SDS011;33994;50.998;5.864;2023-04-25T20:22:04;8.60;;;2.88;;
48203;SDS011;33994;50.998;5.864;2023-04-25T20:25:09;6.35;;;2.25;;